Time;durP1;ratioP1;P1;durP2;ratioP2;P2;SDS_P1;SDS_P2;PMS_P1;PMS_P2;Temp;Humidity;BMP_temperature;BMP_pressure;BME280_temperature;BME280_humidity;BME280_pressure;Samples;Min_cycle;Max_cycle;Signal;HPM_P1;HPM_P2
2022/02/06 00:00:20;;;;;;;2.85;0.50;;;17.30;27.30;17.50;94454.00;;;;10368570;28;47112;-74
2022/02/06 00:05:20;;;;;;;3.28;0.63;;;17.30;27.20;17.50;94451.00;;;;10385251;28;45670;-74
2022/02/06 00:10:21;;;;;;;2.22;0.60;;;17.30;27.40;17.50;94456.00;;;;10384971;28;46301;-74
2022/02/06 00:15:23;;;;;;;2.28;0.40;;;17.20;27.20;17.40;94460.00;;;;10368387;28;47187;-74
2022/02/06 00:20:31;;;;;;;1.42;0.43;;;17.20;27.60;17.40;94453.00;;;;10362748;28;47402;-74
2022/02/06 00:30:41;;;;;;;2.25;0.65;;;17.20;27.90;17.40;94435.00;;;;10343515;28;45160;-74
2022/02/06 00:45:46;;;;;;;2.10;0.43;;;17.10;27.80;17.40;94411.00;;;;10343600;28;45118;-74
2022/02/06 00:50:50;;;;;;;1.20;0.40;;;17.10;27.90;17.40;94427.00;;;;10326251;28;48015;-74
2022/02/06 00:55:51;;;;;;;2.67;0.63;;;17.10;27.90;17.40;94425.00;;;;10343433;28;45375;-74
2022/02/06 01:00:52;;;;;;;2.72;0.60;;;17.10;28.30;17.30;94406.00;;;;10325321;28;47476;-74
2022/02/06 01:05:54;;;;;;;3.28;0.60;;;17.10;28.20;17.30;94407.00;;;;10342438;28;46488;-74
2022/02/06 01:10:55;;;;;;;1.40;0.50;;;17.10;28.00;17.30;94417.00;;;;10325939;28;47354;-74
2022/02/06 01:16:01;;;;;;;1.55;0.50;;;17.10;28.10;17.30;94414.00;;;;10325316;28;48258;-75
2022/02/06 01:21:09;;;;;;;2.60;0.43;;;17.00;28.10;17.30;94385.00;;;;10336851;28;47045;-74
2022/02/06 01:26:21;;;;;;;2.17;0.57;;;17.10;28.20;17.30;94409.00;;;;10367055;28;48000;-74
2022/02/06 01:31:47;;;;;;;1.05;0.40;;;17.00;28.30;17.30;94392.00;;;;10384211;28;45430;-74
2022/02/06 01:37:02;;;;;;;1.25;0.50;;;17.00;28.10;17.20;94403.00;;;;10368480;28;47541;-74
2022/02/06 01:42:05;;;;;;;1.00;0.43;;;17.00;28.20;17.20;94388.00;;;;10367573;28;47106;-74
2022/02/06 02:03:57;;;;;;;1.23;0.50;;;17.00;28.20;17.20;94366.00;;;;10352217;28;45337;-74
2022/02/06 02:09:35;;;;;;;2.67;0.43;;;16.90;28.40;17.20;94381.00;;;;10380609;28;46315;-74
2022/02/06 02:19:52;;;;;;;1.85;0.50;;;16.90;28.40;17.20;94362.00;;;;10382802;28;46278;-74
2022/02/06 02:46:23;;;;;;;3.10;0.57;;;16.80;28.80;17.10;94365.00;;;;10329411;28;45259;-74
2022/02/06 02:51:16;;;;;;;2.20;0.47;;;16.80;28.30;17.10;94371.00;;;;10374031;28;46152;-74
2022/02/06 03:01:32;;;;;;;2.25;0.57;;;16.80;28.20;17.10;94377.00;;;;10338764;28;45142;-74
2022/02/06 03:06:33;;;;;;;4.68;0.70;;;16.80;29.00;17.10;94373.00;;;;10340436;28;45369;-74
2022/02/06 03:11:33;;;;;;;1.70;0.50;;;16.80;28.40;17.10;94356.00;;;;10338316;28;45358;-74
2022/02/06 03:16:38;;;;;;;2.55;0.63;;;16.90;28.40;17.10;94360.00;;;;10321977;28;47404;-74
2022/02/06 03:21:39;;;;;;;2.22;0.50;;;16.90;28.30;17.10;94360.00;;;;10321796;28;47180;-74
2022/02/06 03:26:40;;;;;;;1.35;0.50;;;16.90;28.20;17.10;94341.00;;;;10338454;28;45265;-74
2022/02/06 03:31:41;;;;;;;3.17;0.60;;;16.90;28.00;17.20;94351.00;;;;10338144;28;46705;-74
2022/02/06 03:36:42;;;;;;;3.47;0.50;;;16.90;28.10;17.20;94355.00;;;;10337909;28;45388;-74
2022/02/06 03:47:02;;;;;;;2.20;0.53;;;17.00;27.70;17.20;94346.00;;;;10338800;28;45917;-74
2022/02/06 03:52:04;;;;;;;1.17;0.45;;;17.00;27.70;17.20;94336.00;;;;10322854;28;47485;-74
2022/02/06 03:57:05;;;;;;;3.08;0.80;;;17.00;27.80;17.20;94331.00;;;;10354925;28;45138;-74
2022/02/06 04:02:06;;;;;;;3.33;0.60;;;17.00;27.70;17.30;94346.00;;;;10321219;28;47098;-74
2022/02/06 04:07:11;;;;;;;1.75;0.35;;;17.10;27.40;17.30;94334.00;;;;10336902;28;47084;-74
2022/02/06 04:12:14;;;;;;;2.03;0.43;;;17.10;27.70;17.30;94332.00;;;;10321326;28;47785;-74
2022/02/06 04:17:21;;;;;;;2.60;0.60;;;17.10;27.50;17.30;94330.00;;;;10320915;28;47013;-74
2022/02/06 04:22:23;;;;;;;2.10;0.45;;;17.10;27.20;17.30;94336.00;;;;10320687;28;47899;-74
2022/02/06 04:27:24;;;;;;;2.47;0.40;;;17.10;27.50;17.40;94332.00;;;;10336716;28;46463;-74
2022/02/06 04:32:27;;;;;;;1.13;0.30;;;17.20;27.30;17.40;94331.00;;;;10336499;28;47193;-74
2022/02/06 04:37:44;;;;;;;3.72;0.60;;;17.20;27.50;17.40;94306.00;;;;10327144;28;47026;-74
2022/02/06 05:20:04;;;;;;;2.78;0.60;;;17.20;27.20;17.40;94291.00;;;;10345055;28;45202;-74
2022/02/06 05:30:05;;;;;;;2.00;0.52;;;17.20;27.10;17.40;94272.00;;;;10383303;28;45270;-74
2022/02/06 05:35:08;;;;;;;1.40;0.60;;;17.20;27.00;17.40;94265.00;;;;10381851;28;46848;-74
2022/02/06 05:40:09;;;;;;;2.65;0.50;;;17.20;27.10;17.40;94293.00;;;;10365441;28;46990;-74
2022/02/06 05:45:12;;;;;;;2.67;0.43;;;17.20;27.10;17.40;94268.00;;;;10365132;28;46970;-74
2022/02/06 05:50:17;;;;;;;1.60;0.28;;;17.20;26.80;17.30;94261.00;;;;10381649;28;45512;-74
2022/02/06 05:55:19;;;;;;;2.75;0.80;;;17.20;26.90;17.40;94281.00;;;;10365001;28;48103;-74
2022/02/06 06:00:20;;;;;;;1.80;0.45;;;17.20;27.00;17.30;94285.00;;;;10364680;28;47235;-74
2022/02/06 06:05:20;;;;;;;2.05;0.50;;;17.20;27.00;17.30;94271.00;;;;10364773;28;46927;-74
2022/02/06 06:10:21;;;;;;;1.27;0.40;;;17.10;27.00;17.30;94268.00;;;;10364556;28;46978;-74
2022/02/06 06:15:23;;;;;;;1.13;0.35;;;17.10;26.80;17.30;94268.00;;;;10364605;28;47289;-74
2022/02/06 06:20:27;;;;;;;0.77;0.35;;;17.10;26.60;17.30;94259.00;;;;10364372;28;47167;-74
2022/02/06 06:25:34;;;;;;;1.15;0.40;;;17.10;26.70;17.30;94249.00;;;;10364747;28;47131;-74
2022/02/06 06:30:36;;;;;;;1.42;0.38;;;17.10;26.70;17.30;94256.00;;;;10381659;28;45202;-74
2022/02/06 06:35:39;;;;;;;1.20;0.50;;;17.10;27.00;17.30;94265.00;;;;10363623;28;47958;-74
2022/02/06 06:40:39;;;;;;;1.48;0.38;;;17.10;27.10;17.30;94270.00;;;;10363884;28;47351;-74
2022/02/06 06:45:41;;;;;;;1.63;0.47;;;17.10;27.00;17.30;94241.00;;;;10363515;28;48419;-74
2022/02/06 06:50:42;;;;;;;1.40;0.47;;;17.10;26.70;17.30;94254.00;;;;10363505;28;47158;-74
2022/02/06 06:55:45;;;;;;;2.03;0.43;;;17.10;26.90;17.30;94246.00;;;;10300834;28;48266;-74
2022/02/06 07:00:56;;;;;;;1.40;0.40;;;17.10;27.00;17.20;94231.00;;;;10381138;28;48367;-74
2022/02/06 07:05:57;;;;;;;1.88;0.52;;;17.00;26.70;17.30;94246.00;;;;10381420;28;46498;-74
2022/02/06 07:10:58;;;;;;;1.50;0.60;;;17.10;26.60;17.20;94242.00;;;;10369076;28;47296;-74
2022/02/06 07:15:59;;;;;;;1.55;0.30;;;17.10;26.50;17.20;94236.00;;;;10321668;28;46921;-74
2022/02/06 07:21:00;;;;;;;3.08;0.60;;;17.00;26.60;17.20;94237.00;;;;10348267;28;45388;-74
2022/02/06 07:26:04;;;;;;;1.13;0.40;;;17.00;26.40;17.20;94240.00;;;;10378814;28;46964;-74
2022/02/06 07:31:04;;;;;;;1.33;0.40;;;17.00;26.70;17.20;94227.00;;;;10362717;28;47842;-74
2022/02/06 07:36:05;;;;;;;2.72;0.47;;;17.10;26.60;17.20;94222.00;;;;10362309;28;47195;-74
2022/02/06 07:41:06;;;;;;;0.95;0.30;;;17.10;26.70;17.30;94224.00;;;;10396563;28;45475;-74
2022/02/06 07:46:08;;;;;;;1.85;0.40;;;17.10;26.90;17.30;94221.00;;;;10362001;28;47253;-74
2022/02/06 07:51:08;;;;;;;1.58;0.50;;;17.10;26.90;17.30;94221.00;;;;10357459;28;47447;-74
2022/02/06 07:56:09;;;;;;;1.40;0.43;;;17.20;27.00;17.30;94199.00;;;;10353680;28;48573;-74
2022/02/06 08:01:10;;;;;;;1.17;0.52;;;17.20;27.00;17.30;94193.00;;;;10376197;28;47516;-74
2022/02/06 08:06:12;;;;;;;1.25;0.52;;;17.20;27.40;17.30;94205.00;;;;10353564;28;47880;-74
2022/02/06 08:11:15;;;;;;;2.10;0.60;;;17.20;26.70;17.30;94208.00;;;;10329725;28;48392;-73
2022/02/06 08:16:15;;;;;;;1.02;0.55;;;17.20;26.90;17.40;94185.00;;;;10327801;28;47481;-74
2022/02/06 08:21:16;;;;;;;1.52;0.50;;;17.20;26.90;17.30;94171.00;;;;10327228;28;47050;-74
2022/02/06 08:26:17;;;;;;;2.05;0.60;;;17.20;26.80;17.40;94163.00;;;;10327312;28;47154;-74
2022/02/06 08:31:18;;;;;;;1.98;0.55;;;17.20;26.80;17.40;94170.00;;;;10361189;28;45429;-74
2022/02/06 08:36:18;;;;;;;1.05;0.60;;;17.20;26.80;17.40;94162.00;;;;10342876;28;45305;-74
2022/02/06 08:41:19;;;;;;;1.60;0.80;;;17.30;27.10;17.40;94151.00;;;;10348613;28;47281;-74
2022/02/06 08:46:20;;;;;;;2.17;0.90;;;17.30;26.90;17.40;94169.00;;;;10384465;28;46698;-74
2022/02/06 08:51:20;;;;;;;2.17;0.68;;;17.30;26.80;17.50;94147.00;;;;10363367;28;46553;-76
2022/02/06 08:56:26;;;;;;;1.10;0.50;;;17.40;27.20;17.80;94168.00;;;;10389008;28;45249;-75
2022/02/06 09:01:27;;;;;;;1.60;0.60;;;17.60;27.10;17.90;94138.00;;;;10386593;28;45108;-74
2022/02/06 09:06:28;;;;;;;3.70;0.63;;;17.80;27.50;18.00;94132.00;;;;10369093;28;46974;-77
2022/02/06 09:11:29;;;;;;;2.38;0.43;;;18.00;27.80;18.10;94149.00;;;;10369753;28;46995;-75
2022/02/06 09:16:30;;;;;;;2.05;0.47;;;18.10;27.80;18.20;94144.00;;;;10368136;28;46948;-75
2022/02/06 09:21:31;;;;;;;0.60;0.32;;;18.20;27.90;18.30;94116.00;;;;10370232;28;48243;-76
2022/02/06 09:26:32;;;;;;;1.75;0.50;;;18.40;28.30;18.40;94128.00;;;;10371112;28;47227;-74
2022/02/06 09:31:33;;;;;;;3.13;0.60;;;18.40;28.50;18.40;94128.00;;;;10388409;28;46820;-77
2022/02/06 09:36:34;;;;;;;2.45;0.70;;;18.50;28.60;18.40;94096.00;;;;10366216;28;47077;-74
2022/02/06 09:41:38;;;;;;;3.08;0.50;;;18.60;28.30;18.50;94100.00;;;;10366257;28;47285;-72
2022/02/06 09:46:41;;;;;;;2.10;0.40;;;18.60;28.50;18.50;94097.00;;;;10365384;28;47122;-74
2022/02/06 09:51:45;;;;;;;1.90;0.40;;;18.70;28.20;18.50;94100.00;;;;10364945;28;46984;-73
2022/02/06 09:56:51;;;;;;;1.55;0.45;;;18.70;28.00;18.50;94080.00;;;;10364793;28;48019;-72
2022/02/06 10:01:58;;;;;;;3.63;0.40;;;18.60;27.90;18.50;94066.00;;;;10364430;28;48076;-72
2022/02/06 10:07:06;;;;;;;;;;;18.60;27.80;18.40;94086.00;;;;10365167;28;47754;-73
2022/02/06 10:12:09;;;;;;;1.17;0.40;;;18.60;27.80;18.40;94060.00;;;;10417533;28;46481;-72
2022/02/06 10:17:10;;;;;;;1.40;0.30;;;18.50;27.70;18.40;94049.00;;;;10366033;28;47156;-72
2022/02/06 10:22:39;;;;;;;1.65;0.43;;;18.50;28.20;18.40;94041.00;;;;10364730;28;47083;-72
2022/02/06 10:28:58;;;;;;;1.15;0.45;;;18.50;27.60;18.40;94036.00;;;;10381912;28;46442;-72
2022/02/06 10:33:48;;;;;;;0.70;0.30;;;18.50;27.60;18.40;94028.00;;;;10347100;28;45400;-73
2022/02/06 10:39:01;;;;;;;1.00;0.50;;;18.40;27.50;18.40;93994.00;;;;10372673;28;46656;-73
2022/02/06 10:44:06;;;;;;;2.67;0.63;;;18.50;27.90;18.50;93987.00;;;;10355507;28;47178;-74
2022/02/06 10:49:14;;;;;;;1.75;0.60;;;18.50;28.90;18.60;93982.00;;;;10371554;28;48741;-72
2022/02/06 10:54:18;;;;;;;1.55;0.50;;;18.60;28.70;18.60;93987.00;;;;10372035;28;47198;-75
2022/02/06 10:59:18;;;;;;;1.42;0.60;;;18.70;28.80;18.70;93951.00;;;;10371562;28;47282;-74
2022/02/06 11:04:44;;;;;;;1.90;0.50;;;18.80;28.90;18.60;93979.00;;;;10338708;28;47528;-73
2022/02/06 11:09:43;;;;;;;2.05;0.35;;;18.80;28.80;18.70;93963.00;;;;10368601;28;45284;-73
2022/02/06 11:14:51;;;;;;;2.53;0.40;;;18.70;29.00;18.60;93953.00;;;;10370594;28;47259;-72
2022/02/06 11:20:10;;;;;;;1.40;0.55;;;18.70;28.70;18.60;93914.00;;;;10339246;28;47732;-72
2022/02/06 11:25:11;;;;;;;1.17;0.60;;;18.70;28.60;18.60;93922.00;;;;10362416;28;47081;-73
2022/02/06 11:30:12;;;;;;;1.10;0.40;;;18.60;28.60;18.60;93906.00;;;;10378765;28;45634;-72
2022/02/06 11:35:17;;;;;;;1.35;0.30;;;18.60;28.60;18.60;93893.00;;;;10378610;28;47963;-72
2022/02/06 11:46:29;;;;;;;2.15;0.30;;;18.60;28.70;18.60;93883.00;;;;10403707;28;45251;-73
2022/02/06 11:51:30;;;;;;;0.40;0.20;;;18.60;28.80;18.60;93883.00;;;;10385813;28;45306;-73
2022/02/06 11:56:37;;;;;;;0.40;0.20;;;18.60;28.90;18.60;93879.00;;;;10368740;28;46840;-73
2022/02/06 12:01:42;;;;;;;0.93;0.30;;;18.60;29.00;18.60;93847.00;;;;10385736;28;45685;-73
2022/02/06 12:06:48;;;;;;;0.70;0.17;;;18.60;29.20;18.70;93862.00;;;;10384893;28;45175;-74
2022/02/06 12:12:04;;;;;;;0.30;0.10;;;18.60;29.20;18.70;93857.00;;;;10401741;28;45657;-74
2022/02/06 12:17:43;;;;;;;0.47;0.10;;;18.70;29.20;18.70;93835.00;;;;10378690;28;47945;-73
2022/02/06 12:22:49;;;;;;;0.40;0.20;;;18.70;29.30;18.70;93832.00;;;;10364778;28;47018;-74
2022/02/06 12:27:53;;;;;;;0.30;0.10;;;18.70;29.30;18.70;93831.00;;;;10367908;28;47013;-73
2022/02/06 12:33:22;;;;;;;1.20;0.28;;;18.80;29.30;18.80;93811.00;;;;10368230;28;47261;-73
2022/02/06 12:38:22;;;;;;;0.40;0.10;;;18.80;29.30;18.80;93809.00;;;;10368362;28;48257;-73
2022/02/06 12:43:29;;;;;;;0.15;0.10;;;18.80;29.40;18.80;93812.00;;;;10383628;28;45402;-73
2022/02/06 12:48:31;;;;;;;0.60;0.20;;;18.80;29.30;18.80;93800.00;;;;10383814;28;45309;-74
2022/02/06 12:53:31;;;;;;;0.22;0.10;;;18.90;29.30;18.90;93795.00;;;;10363216;28;47149;-74
2022/02/06 12:58:32;;;;;;;0.20;0.00;;;18.90;29.20;18.90;93787.00;;;;10365024;28;48466;-74
2022/02/06 13:03:39;;;;;;;0.40;0.10;;;18.90;29.10;18.90;93786.00;;;;10383061;28;45278;-74
2022/02/06 13:08:41;;;;;;;0.15;0.10;;;18.90;29.00;18.90;93776.00;;;;10384416;28;46268;-74
2022/02/06 13:14:06;;;;;;;1.35;0.22;;;18.90;29.00;18.90;93755.00;;;;10366457;28;47290;-74
2022/02/06 13:19:25;;;;;;;0.17;0.10;;;18.90;28.90;18.90;93756.00;;;;10367895;28;47317;-73
2022/02/06 13:30:14;;;;;;;0.40;0.10;;;18.90;28.80;18.90;93748.00;;;;10383857;28;45228;-74
2022/02/06 13:35:36;;;;;;;0.15;0.10;;;18.90;28.80;18.90;93747.00;;;;10368765;28;47212;-74
2022/02/06 13:40:46;;;;;;;0.30;0.10;;;18.90;28.70;18.90;93750.00;;;;10385118;28;45411;-74
2022/02/06 13:45:50;;;;;;;0.60;0.10;;;18.90;29.30;18.90;93738.00;;;;10365691;28;47419;-74
2022/02/06 13:50:58;;;;;;;0.60;0.10;;;18.90;28.70;18.90;93720.00;;;;10364880;28;47097;-73
2022/02/06 13:56:03;;;;;;;0.35;0.10;;;18.90;28.70;18.90;93716.00;;;;10365894;28;46875;-74
2022/02/06 14:01:07;;;;;;;0.20;0.10;;;18.90;28.60;18.90;93703.00;;;;10328741;28;46892;-74
2022/02/06 14:06:10;;;;;;;0.10;0.10;;;18.90;28.60;18.90;93666.00;;;;10339599;28;45214;-74
2022/02/06 14:11:19;;;;;;;0.10;0.10;;;18.90;28.60;18.90;93675.00;;;;10354585;28;46948;-74
2022/02/06 14:16:20;;;;;;;0.00;0.00;;;18.90;28.60;18.90;93642.00;;;;10338788;28;45308;-74
2022/02/06 14:21:22;;;;;;;0.03;0.03;;;18.90;28.60;18.90;93621.00;;;;10368630;28;47723;-74
2022/02/06 14:26:22;;;;;;;0.20;0.20;;;18.90;28.60;18.90;93630.00;;;;10353438;28;45200;-75
2022/02/06 14:31:25;;;;;;;1.10;0.30;;;18.90;28.60;19.00;93622.00;;;;10355425;28;47181;-74
2022/02/06 14:36:26;;;;;;;0.20;0.20;;;19.00;29.30;19.00;93613.00;;;;10358595;28;48043;-77
2022/02/06 14:41:36;;;;;;;1.90;0.70;;;19.10;29.30;19.10;93619.00;;;;10387701;22;47288;-79
2022/02/06 14:46:37;;;;;;;0.70;0.30;;;19.20;29.70;19.10;93621.00;;;;10405492;28;47723;-80
2022/02/06 14:51:41;;;;;;;1.42;0.30;;;19.30;29.60;19.20;93617.00;;;;10437044;28;47120;-81
2022/02/06 14:56:42;;;;;;;1.38;0.40;;;19.40;29.40;19.20;93602.00;;;;10393218;28;47153;-80
2022/02/06 15:02:22;;;;;;;0.63;0.40;;;19.40;29.90;19.20;93622.00;;;;10370299;28;47065;-78
2022/02/06 15:07:23;;;;;;;1.52;0.32;;;19.40;29.60;19.20;93620.00;;;;10379429;28;46943;-78
2022/02/06 15:12:24;;;;;;;1.35;0.38;;;19.30;29.40;19.10;93611.00;;;;10362815;28;46849;-78
2022/02/06 15:17:24;;;;;;;0.22;0.20;;;19.20;29.40;19.10;93604.00;;;;10374363;28;47019;-78
2022/02/06 15:22:25;;;;;;;1.10;0.20;;;19.20;29.40;19.10;93638.00;;;;10381581;28;47048;-78
2022/02/06 15:27:26;;;;;;;0.93;0.20;;;19.10;29.40;19.10;93624.00;;;;10362651;28;47008;-78
2022/02/06 15:32:27;;;;;;;0.95;0.30;;;19.10;29.40;19.10;93623.00;;;;10379289;28;45335;-78
2022/02/06 15:37:29;;;;;;;0.15;0.10;;;19.10;29.50;19.10;93613.00;;;;10362173;28;47442;-78
2022/02/06 15:42:30;;;;;;;0.73;0.20;;;19.10;29.60;19.10;93637.00;;;;10361674;28;47224;-79
2022/02/06 15:47:31;;;;;;;0.40;0.20;;;19.10;29.70;19.10;93623.00;;;;10362923;28;47021;-78
2022/02/06 15:52:32;;;;;;;0.68;0.30;;;19.10;29.80;19.10;93611.00;;;;10378244;28;45329;-78
2022/02/06 15:57:33;;;;;;;0.22;0.15;;;19.10;29.90;19.10;93651.00;;;;10361184;28;48442;-78
2022/02/06 16:02:34;;;;;;;0.22;0.10;;;19.10;29.90;19.10;93630.00;;;;10361668;28;48139;-78
2022/02/06 16:07:35;;;;;;;0.38;0.30;;;19.10;30.00;19.10;93618.00;;;;10360719;28;46981;-78
2022/02/06 16:12:37;;;;;;;0.98;0.20;;;19.20;30.00;19.20;93624.00;;;;10361506;28;47318;-78
2022/02/06 16:17:38;;;;;;;0.98;0.20;;;19.20;30.00;19.20;93608.00;;;;10377968;28;45327;-78
2022/02/06 16:22:40;;;;;;;0.10;0.10;;;19.20;30.00;19.20;93629.00;;;;10360631;28;46976;-78
2022/02/06 16:27:40;;;;;;;0.43;0.22;;;19.30;30.00;19.20;93624.00;;;;10361160;28;47305;-78
2022/02/06 16:32:41;;;;;;;0.73;0.40;;;19.20;30.00;19.20;93622.00;;;;10368079;28;47862;-78
2022/02/06 16:37:43;;;;;;;0.82;0.50;;;19.30;30.00;19.20;93588.00;;;;10367915;28;47018;-78
2022/02/06 16:42:45;;;;;;;1.10;0.52;;;19.30;29.90;19.30;93585.00;;;;10367458;28;48368;-78
2022/02/06 16:47:46;;;;;;;1.00;0.60;;;19.30;29.80;19.30;93552.00;;;;10367788;28;47122;-78
2022/02/06 16:52:47;;;;;;;1.25;0.47;;;19.30;29.80;19.20;93578.00;;;;10367289;28;46982;-78
2022/02/06 16:57:47;;;;;;;1.00;0.43;;;19.30;29.70;19.30;93536.00;;;;10384001;28;45647;-78
2022/02/06 17:02:48;;;;;;;0.98;0.40;;;19.30;29.60;19.20;93538.00;;;;10366071;28;47626;-78
2022/02/06 17:07:49;;;;;;;0.50;0.38;;;19.30;29.60;19.20;93539.00;;;;10366915;28;47911;-79
2022/02/06 17:12:54;;;;;;;0.60;0.30;;;19.30;29.60;19.20;93523.00;;;;10369258;28;47167;-78
2022/02/06 17:17:55;;;;;;;0.85;0.30;;;19.30;30.40;19.30;93521.00;;;;10390979;28;47292;-79
2022/02/06 17:22:55;;;;;;;1.98;0.30;;;19.30;30.50;19.30;93536.00;;;;10421778;28;48092;-85
2022/02/06 17:27:56;;;;;;;0.47;0.20;;;19.30;30.70;19.30;93520.00;;;;10413674;28;47002;-77
2022/02/06 17:32:57;;;;;;;1.63;0.50;;;19.30;30.50;19.30;93540.00;;;;10341217;28;47219;-77
2022/02/06 17:37:57;;;;;;;2.55;0.30;;;19.30;30.20;19.30;93529.00;;;;10368204;28;47261;-78
2022/02/06 17:42:58;;;;;;;0.55;0.20;;;19.30;30.40;19.30;93524.00;;;;10382197;28;45694;-77
2022/02/06 17:47:59;;;;;;;0.45;0.20;;;19.30;30.20;19.30;93510.00;;;;10381953;28;46655;-77
2022/02/06 17:53:04;;;;;;;0.35;0.20;;;19.30;30.10;19.30;93510.00;;;;10386458;28;45574;-78
2022/02/06 17:58:05;;;;;;;0.88;0.20;;;19.30;30.20;19.30;93520.00;;;;10380984;28;47199;-77
2022/02/06 18:03:06;;;;;;;1.10;0.55;;;19.30;30.10;19.20;93523.00;;;;10380634;28;47234;-77
2022/02/06 18:08:07;;;;;;;2.17;0.40;;;19.30;30.00;19.30;93501.00;;;;10380793;28;46835;-76
2022/02/06 18:13:07;;;;;;;0.80;0.45;;;19.30;30.00;19.30;93480.00;;;;10380546;28;46156;-77
2022/02/06 18:18:08;;;;;;;1.05;0.50;;;19.30;30.00;19.30;93472.00;;;;10380815;28;46329;-77
2022/02/06 18:23:09;;;;;;;0.40;0.40;;;19.30;30.00;19.30;93465.00;;;;10395760;28;46416;-77
2022/02/06 18:28:09;;;;;;;0.68;0.40;;;19.30;30.00;19.30;93472.00;;;;10380457;28;45227;-77
2022/02/06 18:33:10;;;;;;;1.55;0.38;;;19.30;29.90;19.30;93478.00;;;;10380816;28;45360;-77
2022/02/06 18:38:34;;;;;;;0.63;0.30;;;19.20;29.90;19.20;93445.00;;;;10372896;28;47411;-77
2022/02/06 18:43:37;;;;;;;0.38;0.20;;;19.20;29.80;19.20;93443.00;;;;10402136;28;47335;-77
2022/02/06 18:48:38;;;;;;;0.55;0.30;;;19.20;29.80;19.20;93452.00;;;;10404979;28;47160;-77
2022/02/06 18:53:53;;;;;;;0.30;0.20;;;19.30;29.80;19.20;93443.00;;;;10402965;28;46857;-77
2022/02/06 18:58:54;;;;;;;0.52;0.20;;;19.20;29.80;19.20;93401.00;;;;10411867;28;45551;-77
2022/02/06 19:03:54;;;;;;;0.30;0.10;;;19.20;29.70;19.20;93415.00;;;;10403492;28;47367;-77
2022/02/06 19:08:56;;;;;;;0.17;0.10;;;19.30;29.80;19.20;93391.00;;;;10420707;28;46552;-78
2022/02/06 19:13:56;;;;;;;0.40;0.20;;;19.30;29.70;19.20;93378.00;;;;10402308;28;48252;-77
2022/02/06 19:18:58;;;;;;;0.77;0.10;;;19.30;29.70;19.20;93391.00;;;;10403361;28;47311;-77
2022/02/06 19:23:59;;;;;;;0.10;0.10;;;19.20;29.70;19.20;93389.00;;;;10367734;28;48203;-77
2022/02/06 19:29:01;;;;;;;0.20;0.10;;;19.20;29.70;19.20;93369.00;;;;10377936;28;45058;-77
2022/02/06 19:34:09;;;;;;;0.68;0.32;;;19.30;29.70;19.20;93345.00;;;;10378177;28;46275;-77
2022/02/06 19:39:13;;;;;;;0.28;0.22;;;19.20;29.70;19.20;93364.00;;;;10363539;28;47311;-77
2022/02/06 19:44:14;;;;;;;0.28;0.20;;;19.20;29.70;19.20;93346.00;;;;10377922;28;47225;-77
2022/02/06 19:49:16;;;;;;;0.13;0.10;;;19.20;29.60;19.20;93340.00;;;;10361624;28;48403;-77
2022/02/06 19:54:18;;;;;;;0.25;0.15;;;19.20;29.60;19.20;93368.00;;;;10377649;28;48510;-77
2022/02/06 19:59:19;;;;;;;0.20;0.10;;;19.20;29.60;19.20;93341.00;;;;10377655;28;46927;-77
2022/02/06 20:04:20;;;;;;;0.28;0.10;;;19.20;29.60;19.20;93328.00;;;;10381363;28;46719;-77
2022/02/06 20:09:22;;;;;;;0.10;0.10;;;19.20;29.60;19.20;93342.00;;;;10368926;28;47017;-77
2022/02/06 20:14:22;;;;;;;0.10;0.10;;;19.20;29.70;19.20;93318.00;;;;10384624;28;45259;-77
2022/02/06 20:19:23;;;;;;;0.88;0.20;;;19.10;29.70;19.20;93327.00;;;;10368055;28;46973;-77
2022/02/06 20:24:24;;;;;;;0.30;0.10;;;19.10;29.80;19.20;93319.00;;;;10421993;28;46846;-77
2022/02/06 20:29:24;;;;;;;0.30;0.10;;;19.20;29.90;19.20;93307.00;;;;10409076;28;47119;-77
2022/02/06 20:34:26;;;;;;;0.00;0.00;;;19.20;30.00;19.20;93291.00;;;;10425377;28;46661;-77
2022/02/06 20:39:27;;;;;;;0.08;0.00;;;19.20;30.00;19.20;93257.00;;;;10425247;28;47893;-77
2022/02/06 20:44:30;;;;;;;0.13;0.03;;;19.20;30.10;19.30;93253.00;;;;10371297;22;45392;-72
2022/02/06 20:49:33;;;;;;;0.03;0.00;;;19.20;30.10;19.30;93227.00;;;;10326172;28;47106;-72
2022/02/06 20:54:34;;;;;;;0.30;0.00;;;19.30;30.20;19.30;93233.00;;;;10335800;28;46997;-72
2022/02/06 20:59:38;;;;;;;0.10;0.10;;;19.30;30.30;19.40;93238.00;;;;10359255;28;45379;-72
2022/02/06 21:04:39;;;;;;;0.00;0.00;;;19.30;30.40;19.40;93208.00;;;;10343846;28;48135;-72
2022/02/06 21:09:39;;;;;;;0.00;0.00;;;19.40;30.40;19.40;93194.00;;;;10342307;28;47197;-72
2022/02/06 21:14:43;;;;;;;0.00;0.00;;;19.40;30.40;19.40;93168.00;;;;10358028;28;47759;-72
2022/02/06 21:19:44;;;;;;;0.38;0.05;;;19.40;30.40;19.40;93155.00;;;;10305742;28;48062;-72
2022/02/06 21:24:45;;;;;;;0.10;0.10;;;19.50;30.40;19.50;93153.00;;;;10335139;28;46940;-72
2022/02/06 21:29:46;;;;;;;0.00;0.00;;;19.50;30.40;19.50;93115.00;;;;10300142;28;46916;-72
2022/02/06 21:34:47;;;;;;;0.10;0.00;;;19.50;30.30;19.50;93121.00;;;;10299544;28;47043;-72
2022/02/06 21:39:47;;;;;;;0.00;0.00;;;19.50;30.20;19.50;93114.00;;;;10299821;28;47222;-72
2022/02/06 21:44:48;;;;;;;0.00;0.00;;;19.50;30.10;19.50;93103.00;;;;10314608;28;47543;-71
2022/02/06 21:49:56;;;;;;;0.10;0.00;;;19.50;30.10;19.50;93090.00;;;;10299135;28;48382;-72
2022/02/06 21:54:57;;;;;;;0.00;0.00;;;19.50;30.50;19.50;93093.00;;;;10299883;28;47913;-72
2022/02/06 21:59:58;;;;;;;0.00;0.00;;;19.50;30.00;19.50;93085.00;;;;10315447;28;45256;-72
2022/02/06 22:04:59;;;;;;;0.00;0.00;;;19.50;30.00;19.50;93045.00;;;;10298564;28;47310;-71
2022/02/06 22:10:26;;;;;;;0.85;0.03;;;19.50;30.00;19.50;93049.00;;;;10298868;28;47127;-72
2022/02/06 22:21:34;;;;;;;0.00;0.00;;;19.50;30.00;19.50;93016.00;;;;10331095;28;45241;-72
2022/02/06 22:31:26;;;;;;;0.00;0.00;;;19.50;30.00;19.50;92996.00;;;;10396496;28;46257;-72
2022/02/06 22:36:27;;;;;;;0.00;0.00;;;19.50;30.00;19.50;93012.00;;;;10395970;28;45199;-72
2022/02/06 22:41:28;;;;;;;0.00;0.00;;;19.50;30.00;19.50;93005.00;;;;10394826;28;47209;-71
2022/02/06 22:46:28;;;;;;;0.28;0.00;;;19.50;30.00;19.50;92981.00;;;;10379020;28;48227;-72
2022/02/06 22:51:29;;;;;;;0.05;0.00;;;19.40;29.90;19.40;92975.00;;;;10395309;28;47118;-72
2022/02/06 22:56:32;;;;;;;0.00;0.00;;;19.40;29.90;19.40;92956.00;;;;10378577;28;47466;-72
2022/02/06 23:01:33;;;;;;;0.00;0.00;;;19.40;29.90;19.40;92925.00;;;;10378412;28;47146;-72
2022/02/06 23:06:35;;;;;;;0.00;0.00;;;19.40;29.90;19.50;92929.00;;;;10378522;28;47363;-72
2022/02/06 23:11:35;;;;;;;0.25;0.00;;;19.40;30.00;19.50;92941.00;;;;10377493;28;47603;-72
2022/02/06 23:16:37;;;;;;;0.00;0.00;;;19.40;30.00;19.50;92935.00;;;;10378153;28;47188;-72
2022/02/06 23:21:38;;;;;;;0.00;0.00;;;19.50;30.00;19.40;92949.00;;;;10362860;28;47913;-72
2022/02/06 23:26:38;;;;;;;0.20;0.00;;;19.40;30.00;19.40;92939.00;;;;10354755;28;45288;-72
2022/02/06 23:31:39;;;;;;;0.10;0.00;;;19.50;30.00;19.40;92925.00;;;;10337016;28;46986;-72
2022/02/06 23:36:40;;;;;;;0.00;0.00;;;19.50;30.00;19.40;92918.00;;;;10336941;28;47131;-71
2022/02/06 23:41:41;;;;;;;0.00;0.00;;;19.40;30.00;19.40;92926.00;;;;10343663;28;46886;-72
2022/02/06 23:46:43;;;;;;;0.10;0.00;;;19.40;30.00;19.40;92919.00;;;;10360432;28;45504;-72
2022/02/06 23:52:08;;;;;;;0.00;0.00;;;19.40;30.00;19.40;92931.00;;;;10343647;28;47065;-72
2022/02/06 23:57:10;;;;;;;0.32;0.10;;;19.40;30.00;19.40;92912.00;;;;10346669;28;47027;-72
